Time,TemperatureF,DewpointF,PressureIn,WindDirection,WindDirectionDegrees,WindSpeedMPH,WindSpeedGustMPH,Humidity,HourlyPrecipIn,Conditions,Clouds,dailyrainin,SoftwareType,DateUTC
2013-01-11 00:01:00,31.1,24.1,30.34,ENE,70,3.1,3.1,75,0.00,,OVC200,0.00,VWS V14.01,2013-01-11 05:01:00,
2013-01-11 00:03:00,31.1,24.1,30.34,East,100,5.4,5.4,75,0.00,,OVC200,0.00,VWS V14.01,2013-01-11 05:03:00,
2013-01-11 00:04:00,31.1,24.1,30.34,East,92,3.6,3.6,75,0.00,,OVC200,0.00,VWS V14.01,2013-01-11 05:04:00,
2013-01-11 00:06:00,31.3,24.3,30.34,ENE,65,3.6,3.6,75,0.00,,OVC200,0.00,VWS V14.01,2013-01-11 05:06:00,
2013-01-11 00:11:00,31.5,24.5,30.34,East,96,3.1,3.1,75,0.00,,OVC200,0.00,VWS V14.01,2013-01-11 05:11:00,
2013-01-11 00:16:00,31.6,24.3,30.34,East,85,3.1,3.6,74,0.00,,OVC200,0.00,VWS V14.01,2013-01-11 05:16:00,
2013-01-11 00:21:00,31.5,24.1,30.31,ENE,64,2.7,3.6,74,0.00,,OVC200,0.00,VWS V14.01,2013-01-11 05:21:00,
2013-01-11 00:26:00,31.6,24.3,30.31,East,85,3.6,6.3,74,0.00,,OVC200,0.00,VWS V14.01,2013-01-11 05:26:00,
2013-01-11 00:31:00,32.0,24.3,30.31,ESE,117,5.4,5.4,73,0.00,,OVC200,0.00,VWS V14.01,2013-01-11 05:31:00,
2013-01-11 00:36:00,32.2,24.5,30.31,ESE,121,5.8,5.8,73,0.00,,OVC200,0.00,VWS V14.01,2013-01-11 05:36:00,
2013-01-11 00:41:00,32.2,24.2,30.31,SE,132,5.4,6.7,72,0.00,,OVC200,0.00,VWS V14.01,2013-01-11 05:41:00,
2013-01-11 00:46:00,32.2,24.2,30.31,ESE,104,7.2,7.6,72,0.00,,OVC200,0.00,VWS V14.01,2013-01-11 05:46:00,
2013-01-11 00:51:00,32.4,24.4,30.31,ESE,116,5.4,7.6,72,0.00,,OVC200,0.00,VWS V14.01,2013-01-11 05:51:00,
2013-01-11 00:56:00,32.4,24.0,30.31,ESE,122,6.3,6.3,71,0.00,,OVC200,0.00,VWS V14.01,2013-01-11 05:56:00,
2013-01-11 01:01:00,32.4,24.0,30.31,SE,124,5.8,6.3,71,0.00,,OVC190,0.00,VWS V14.01,2013-01-11 06:01:00,
2013-01-11 01:06:00,32.5,24.2,30.28,SE,137,4.5,5.8,71,0.00,,OVC190,0.00,VWS V14.01,2013-01-11 06:06:00,
2013-01-11 01:11:00,32.5,24.2,30.28,ESE,109,5.4,5.4,71,0.00,,OVC190,0.00,VWS V14.01,2013-01-11 06:11:00,
2013-01-11 01:16:00,32.7,24.0,30.28,East,87,6.3,6.3,70,0.00,,OVC190,0.00,VWS V14.01,2013-01-11 06:16:00,
2013-01-11 01:21:00,32.7,24.0,30.28,ESE,108,5.4,7.6,70,0.00,,OVC190,0.00,VWS V14.01,2013-01-11 06:21:00,
2013-01-11 01:27:00,32.7,23.7,30.28,ESE,110,8.3,8.3,69,0.00,,OVC190,0.00,VWS V14.01,2013-01-11 06:27:00,
2013-01-11 01:32:00,32.7,23.7,30.28,SSE,151,6.3,6.3,69,0.00,,OVC190,0.00,VWS V14.01,2013-01-11 06:32:00,
2013-01-11 01:37:00,32.7,23.7,30.28,SE,134,5.4,6.3,69,0.00,,OVC190,0.00,VWS V14.01,2013-01-11 06:37:00,
2013-01-11 01:42:00,32.7,23.7,30.28,ESE,106,5.4,7.6,69,0.00,,OVC190,0.00,VWS V14.01,2013-01-11 06:42:00,
2013-01-11 01:47:00,32.7,23.7,30.28,SE,124,5.8,5.8,69,0.00,,OVC190,0.00,VWS V14.01,2013-01-11 06:47:00,
2013-01-11 01:52:00,32.7,23.7,30.28,ESE,110,5.8,6.3,69,0.00,,OVC190,0.00,VWS V14.01,2013-01-11 06:52:00,
2013-01-11 01:57:00,32.7,23.7,30.28,ESE,111,4.9,8.1,69,0.00,,OVC190,0.00,VWS V14.01,2013-01-11 06:57:00,
2013-01-11 02:02:00,32.9,23.5,30.28,East,86,5.4,5.4,68,0.00,,OVC200,0.00,VWS V14.01,2013-01-11 07:02:00,
2013-01-11 02:07:00,33.1,23.7,30.25,East,96,8.3,8.3,68,0.00,,OVC200,0.00,VWS V14.01,2013-01-11 07:07:00,
2013-01-11 02:12:00,33.1,23.7,30.25,ESE,121,6.3,6.3,68,0.00,,OVC200,0.00,VWS V14.01,2013-01-11 07:12:00,
2013-01-11 02:17:00,33.1,23.7,30.25,SSE,152,8.3,8.3,68,0.00,,OVC200,0.00,VWS V14.01,2013-01-11 07:17:00,
2013-01-11 02:22:00,33.1,23.7,30.25,ESE,118,6.3,7.6,68,0.00,,OVC200,0.00,VWS V14.01,2013-01-11 07:22:00,
2013-01-11 02:27:00,33.3,23.9,30.25,East,92,6.3,6.3,68,0.00,,OVC200,0.00,VWS V14.01,2013-01-11 07:27:00,
2013-01-11 02:32:00,33.3,23.9,30.25,ESE,123,8.7,8.7,68,0.00,,OVC200,0.00,VWS V14.01,2013-01-11 07:32:00,
2013-01-11 02:37:00,33.3,23.5,30.25,SSE,153,10.1,12.3,67,0.00,,OVC200,0.00,VWS V14.01,2013-01-11 07:37:00,
2013-01-11 02:42:00,33.4,23.7,30.25,ESE,110,3.6,6.3,67,0.00,,OVC200,0.00,VWS V14.01,2013-01-11 07:42:00,
2013-01-11 02:47:00,33.4,23.7,30.25,SSE,149,8.1,8.1,67,0.00,,OVC200,0.00,VWS V14.01,2013-01-11 07:47:00,
2013-01-11 02:52:00,33.4,23.7,30.22,SE,140,5.8,5.8,67,0.00,,OVC200,0.00,VWS V14.01,2013-01-11 07:52:00,
2013-01-11 02:57:00,33.4,23.7,30.22,ESE,123,4.9,4.9,67,0.00,,OVC200,0.00,VWS V14.01,2013-01-11 07:57:00,
2013-01-11 03:02:00,33.4,23.7,30.22,SE,139,5.4,5.4,67,0.00,,CLR,0.00,VWS V14.01,2013-01-11 08:02:00,
2013-01-11 03:07:00,33.6,23.9,30.22,SSE,151,8.7,8.7,67,0.00,,CLR,0.00,VWS V14.01,2013-01-11 08:07:00,
2013-01-11 03:12:00,33.6,23.9,30.22,SE,130,5.8,7.6,67,0.00,,CLR,0.00,VWS V14.01,2013-01-11 08:12:00,
2013-01-11 03:17:00,33.6,23.9,30.22,SE,143,6.3,8.3,67,0.00,,CLR,0.00,VWS V14.01,2013-01-11 08:17:00,
2013-01-11 03:22:00,33.6,23.5,30.19,SE,132,5.8,8.3,66,0.00,,CLR,0.00,VWS V14.01,2013-01-11 08:22:00,
2013-01-11 03:27:00,33.6,23.5,30.19,ESE,116,8.7,8.7,66,0.00,,CLR,0.00,VWS V14.01,2013-01-11 08:27:00,
2013-01-11 03:32:00,33.6,23.5,30.19,ESE,113,3.6,5.4,66,0.00,,OVC140,0.00,VWS V14.01,2013-01-11 08:32:00,
2013-01-11 03:37:00,33.4,23.3,30.19,ESE,112,4.0,5.8,66,0.00,,OVC140,0.00,VWS V14.01,2013-01-11 08:37:00,
2013-01-11 03:42:00,33.4,23.3,30.19,SE,137,5.4,5.4,66,0.00,,OVC140,0.00,VWS V14.01,2013-01-11 08:42:00,
2013-01-11 03:47:00,33.6,23.5,30.19,SE,131,3.6,5.4,66,0.00,,OVC140,0.00,VWS V14.01,2013-01-11 08:47:00,
2013-01-11 03:52:00,33.6,23.5,30.19,SE,135,5.8,7.6,66,0.00,,OVC140,0.00,VWS V14.01,2013-01-11 08:52:00,
2013-01-11 03:57:00,33.6,23.5,30.19,ESE,106,2.7,5.4,66,0.00,,OVC140,0.00,VWS V14.01,2013-01-11 08:57:00,
2013-01-11 04:02:00,33.6,23.5,30.19,ESE,115,3.6,4.0,66,0.00,,OVC140,0.00,VWS V14.01,2013-01-11 09:02:00,
2013-01-11 04:07:00,33.8,23.3,30.16,ESE,119,3.6,4.0,65,0.00,,OVC140,0.00,VWS V14.01,2013-01-11 09:07:00,
2013-01-11 04:12:00,33.8,23.3,30.16,East,100,4.0,5.8,65,0.00,,OVC140,0.00,VWS V14.01,2013-01-11 09:12:00,
2013-01-11 04:17:00,34.0,23.5,30.16,East,100,4.0,4.0,65,0.00,,OVC140,0.00,VWS V14.01,2013-01-11 09:17:00,
2013-01-11 04:22:00,33.8,22.9,30.16,East,90,3.1,3.1,64,0.00,,OVC140,0.00,VWS V14.01,2013-01-11 09:22:00,
2013-01-11 04:27:00,34.0,23.5,30.16,East,87,4.0,5.4,65,0.00,,OVC140,0.00,VWS V14.01,2013-01-11 09:27:00,
2013-01-11 04:33:00,33.8,23.3,30.16,ESE,110,3.1,3.1,65,0.00,,-RA,0.00,VWS V14.01,2013-01-11 09:33:00,
2013-01-11 04:38:00,33.8,23.3,30.16,East,100,0.0,2.7,65,0.00,,-RA,0.00,VWS V14.01,2013-01-11 09:38:00,
2013-01-11 04:43:00,33.8,23.7,30.16,ESE,105,3.1,3.6,66,0.00,,-RA,0.00,VWS V14.01,2013-01-11 09:43:00,
2013-01-11 04:48:00,33.8,24.0,30.16,ESE,116,4.0,4.0,67,0.00,,-RA,0.00,VWS V14.01,2013-01-11 09:48:00,
2013-01-11 04:53:00,34.0,24.9,30.16,SE,135,8.1,8.1,69,0.00,,-RA,0.00,VWS V14.01,2013-01-11 09:53:00,
2013-01-11 04:58:00,34.3,25.2,30.16,ESE,114,5.8,5.8,69,0.00,,-RA,0.00,VWS V14.01,2013-01-11 09:58:00,
2013-01-11 05:03:00,34.3,25.2,30.16,SE,138,3.6,3.6,69,0.00,,-RA,0.00,VWS V14.01,2013-01-11 10:03:00,
2013-01-11 05:08:00,34.5,25.4,30.13,ESE,118,5.4,5.4,69,0.00,,-RA,0.00,VWS V14.01,2013-01-11 10:08:00,
2013-01-11 05:13:00,34.9,25.4,30.13,SE,142,8.7,8.7,68,0.00,,-RA,0.00,VWS V14.01,2013-01-11 10:13:00,
2013-01-11 05:18:00,34.9,25.4,30.13,South,171,8.1,8.1,68,0.00,,-RA,0.00,VWS V14.01,2013-01-11 10:18:00,
2013-01-11 05:23:00,35.4,25.2,30.13,SSE,149,6.3,7.6,66,0.00,,-RA,0.00,VWS V14.01,2013-01-11 10:23:00,
2013-01-11 05:28:00,35.4,24.5,30.13,SSE,152,3.6,4.0,64,0.00,,-RA,0.00,VWS V14.01,2013-01-11 10:28:00,
2013-01-11 05:33:00,35.4,24.1,30.13,SSE,168,7.6,8.7,63,0.00,,OVC120,0.00,VWS V14.01,2013-01-11 10:33:00,
2013-01-11 05:38:00,35.6,23.9,30.13,SSE,151,5.8,6.3,62,0.00,,OVC120,0.00,VWS V14.01,2013-01-11 10:38:00,
2013-01-11 05:43:00,35.8,23.7,30.13,SE,146,3.6,4.0,61,0.00,,OVC120,0.00,VWS V14.01,2013-01-11 10:43:00,
2013-01-11 05:48:00,36.0,23.4,30.13,South,177,3.6,4.0,60,0.00,,OVC120,0.00,VWS V14.01,2013-01-11 10:48:00,
2013-01-11 05:53:00,36.1,23.2,30.10,SSE,148,7.2,8.7,59,0.00,,OVC120,0.00,VWS V14.01,2013-01-11 10:53:00,
2013-01-11 05:58:00,36.1,22.8,30.10,SSE,167,5.4,9.6,58,0.00,,OVC120,0.00,VWS V14.01,2013-01-11 10:58:00,
2013-01-11 06:03:00,36.3,23.0,30.10,SSE,153,5.4,6.3,58,0.00,,OVC120,0.00,VWS V14.01,2013-01-11 11:03:00,
2013-01-11 06:08:00,36.7,22.9,30.10,SE,137,5.4,8.7,57,0.00,,OVC120,0.00,VWS V14.01,2013-01-11 11:08:00,
2013-01-11 06:13:00,36.9,22.6,30.10,South,182,5.8,8.7,56,0.00,,OVC120,0.00,VWS V14.01,2013-01-11 11:13:00,
2013-01-11 06:18:00,37.0,22.8,30.10,South,172,8.3,9.2,56,0.00,,OVC120,0.00,VWS V14.01,2013-01-11 11:18:00,
2013-01-11 06:23:00,37.4,22.7,30.10,ESE,115,4.0,7.6,55,0.00,,OVC120,0.00,VWS V14.01,2013-01-11 11:23:00,
2013-01-11 06:28:00,37.4,22.7,30.10,SSE,159,6.3,8.3,55,0.00,,OVC120,0.00,VWS V14.01,2013-01-11 11:28:00,
2013-01-11 06:33:00,37.4,22.7,30.10,SSE,163,7.6,8.3,55,0.00,,OVC085,0.00,VWS V14.01,2013-01-11 11:33:00,
2013-01-11 06:38:00,37.6,22.5,30.10,South,172,5.8,5.8,54,0.00,,OVC085,0.00,VWS V14.01,2013-01-11 11:38:00,
2013-01-11 06:44:00,37.6,22.5,30.10,SSE,152,8.7,11.0,54,0.00,,OVC085,0.00,VWS V14.01,2013-01-11 11:44:00,
2013-01-11 06:49:00,37.8,22.6,30.10,South,179,8.3,8.3,54,0.00,,OVC085,0.00,VWS V14.01,2013-01-11 11:49:00,
2013-01-11 06:54:00,37.8,22.6,30.10,South,171,10.1,10.1,54,0.00,,OVC085,0.00,VWS V14.01,2013-01-11 11:54:00,
2013-01-11 06:59:00,37.6,22.5,30.10,SSE,154,5.8,8.7,54,0.00,,OVC085,0.00,VWS V14.01,2013-01-11 11:59:00,
2013-01-11 07:04:00,37.6,22.9,30.10,SSE,153,6.3,6.3,55,0.00,,OVC085,0.00,VWS V14.01,2013-01-11 12:04:00,
2013-01-11 07:09:00,37.9,23.2,30.07,SE,144,6.3,11.9,55,0.00,,OVC085,0.00,VWS V14.01,2013-01-11 12:09:00,
2013-01-11 07:14:00,37.9,23.2,30.07,SSE,150,10.5,10.5,55,0.00,,OVC085,0.00,VWS V14.01,2013-01-11 12:14:00,
2013-01-11 07:19:00,38.1,23.0,30.07,South,174,6.3,8.3,54,0.00,,OVC085,0.00,VWS V14.01,2013-01-11 12:19:00,
2013-01-11 07:24:00,38.3,23.1,30.07,SSE,149,5.8,6.3,54,0.00,,OVC085,0.00,VWS V14.01,2013-01-11 12:24:00,
2013-01-11 07:29:00,38.1,23.4,30.07,South,185,6.3,8.7,55,0.00,,OVC085,0.00,VWS V14.01,2013-01-11 12:29:00,
2013-01-11 07:34:00,37.9,23.2,30.07,South,175,6.3,6.3,55,0.00,,OVC085,0.00,VWS V14.01,2013-01-11 12:34:00,
2013-01-11 07:39:00,38.1,23.8,30.07,South,181,5.8,6.3,56,0.00,,OVC085,0.00,VWS V14.01,2013-01-11 12:39:00,
2013-01-11 07:44:00,38.1,23.8,30.07,South,172,9.6,9.6,56,0.00,,OVC085,0.00,VWS V14.01,2013-01-11 12:44:00,
2013-01-11 07:49:00,38.1,23.8,30.04,South,173,5.8,5.8,56,0.00,,OVC085,0.00,VWS V14.01,2013-01-11 12:49:00,
2013-01-11 07:54:00,38.1,24.2,30.04,SSW,200,5.8,5.8,57,0.00,,OVC085,0.00,VWS V14.01,2013-01-11 12:54:00,
2013-01-11 07:59:00,38.1,24.2,30.04,South,180,6.3,8.1,57,0.00,,OVC085,0.00,VWS V14.01,2013-01-11 12:59:00,
2013-01-11 08:04:00,38.1,24.2,30.07,SSW,203,4.9,5.4,57,0.00,,-RA,0.00,VWS V14.01,2013-01-11 13:04:00,
2013-01-11 08:09:00,37.9,24.1,30.07,South,178,5.4,7.6,57,0.00,,-RA,0.00,VWS V14.01,2013-01-11 13:09:00,
2013-01-11 08:14:00,38.3,24.8,30.07,SSW,194,11.0,11.0,58,0.00,,-RA,0.00,VWS V14.01,2013-01-11 13:14:00,
2013-01-11 08:19:00,38.7,25.2,30.07,SSW,204,8.7,11.0,58,0.00,,-RA,0.00,VWS V14.01,2013-01-11 13:19:00,
2013-01-11 08:24:00,38.7,25.6,30.07,SSW,201,9.2,9.2,59,0.00,,-RA,0.00,VWS V14.01,2013-01-11 13:24:00,
2013-01-11 08:29:00,38.5,26.2,30.07,South,169,6.3,11.0,61,0.04,,-RA,0.04,VWS V14.01,2013-01-11 13:29:00,
2013-01-11 08:34:00,38.1,26.3,30.07,SSW,195,8.3,11.0,62,0.04,,-RA,0.04,VWS V14.01,2013-01-11 13:34:00,
2013-01-11 08:39:00,38.1,26.3,30.07,SSE,167,6.3,9.6,62,0.04,,-RA,0.04,VWS V14.01,2013-01-11 13:39:00,
2013-01-11 08:44:00,38.1,26.6,30.07,South,179,8.7,9.2,63,0.04,,-RA,0.04,VWS V14.01,2013-01-11 13:44:00,
2013-01-11 08:49:00,38.1,27.0,30.07,South,179,8.3,8.3,64,0.04,,-RA,0.04,VWS V14.01,2013-01-11 13:49:00,
2013-01-11 08:54:00,37.9,27.2,30.07,SSW,201,6.3,7.6,65,0.04,,-RA,0.04,VWS V14.01,2013-01-11 13:54:00,
2013-01-11 08:59:00,37.9,27.6,30.07,South,170,7.6,10.5,66,0.04,,-RA,0.04,VWS V14.01,2013-01-11 13:59:00,
2013-01-11 09:05:00,38.1,27.8,30.04,South,181,6.3,10.1,66,0.04,,-RA,0.04,VWS V14.01,2013-01-11 14:05:00,
2013-01-11 09:10:00,38.3,27.6,30.04,South,178,8.3,12.8,65,0.04,,-RA,0.04,VWS V14.01,2013-01-11 14:10:00,
2013-01-11 09:15:00,38.5,27.8,30.04,SSE,166,8.7,10.5,65,0.04,,-RA,0.04,VWS V14.01,2013-01-11 14:15:00,
2013-01-11 09:20:00,38.5,27.4,30.04,South,181,8.3,12.3,64,0.04,,-RA,0.04,VWS V14.01,2013-01-11 14:20:00,
2013-01-11 09:25:00,38.3,27.6,30.04,South,174,8.3,10.5,65,0.04,,-RA,0.04,VWS V14.01,2013-01-11 14:25:00,
2013-01-11 09:30:00,38.1,27.4,30.04,South,177,7.6,11.0,65,0.00,,-RA,0.04,VWS V14.01,2013-01-11 14:30:00,
2013-01-11 09:35:00,38.5,27.8,30.04,SSE,160,10.1,10.5,65,0.00,,-RA,0.04,VWS V14.01,2013-01-11 14:35:00,
2013-01-11 09:40:00,38.5,27.4,30.04,South,183,10.5,10.5,64,0.00,,-RA,0.04,VWS V14.01,2013-01-11 14:40:00,
2013-01-11 09:45:00,38.5,27.4,30.04,SSE,159,6.3,10.5,64,0.00,,-RA,0.04,VWS V14.01,2013-01-11 14:45:00,
2013-01-11 09:50:00,38.5,27.0,30.04,SSE,168,5.8,8.3,63,0.00,,-RA,0.04,VWS V14.01,2013-01-11 14:50:00,
2013-01-11 09:55:00,38.7,27.2,30.04,SSE,155,10.1,14.1,63,0.00,,-RA,0.04,VWS V14.01,2013-01-11 14:55:00,
2013-01-11 10:00:00,38.8,27.3,30.04,SE,137,8.7,9.2,63,0.00,,-RA,0.04,VWS V14.01,2013-01-11 15:00:00,
2013-01-11 10:05:00,39.0,27.1,30.01,ESE,123,8.7,10.5,62,0.00,,-RA,0.04,VWS V14.01,2013-01-11 15:05:00,
2013-01-11 10:10:00,39.0,27.1,30.01,South,173,11.4,12.8,62,0.00,,-RA,0.04,VWS V14.01,2013-01-11 15:10:00,
2013-01-11 10:15:00,39.0,27.1,30.01,South,176,7.6,7.6,62,0.00,,-RA,0.04,VWS V14.01,2013-01-11 15:15:00,
2013-01-11 10:20:00,39.2,26.9,30.01,SSE,155,8.7,8.7,61,0.00,,-RA,0.04,VWS V14.01,2013-01-11 15:20:00,
2013-01-11 10:25:00,39.2,26.9,30.01,SSE,151,11.0,11.0,61,0.00,,-RA,0.04,VWS V14.01,2013-01-11 15:25:00,
2013-01-11 10:30:00,39.2,26.9,30.01,SSE,163,8.7,10.1,61,0.00,,-RA,0.04,VWS V14.01,2013-01-11 15:30:00,
2013-01-11 10:35:00,39.4,27.1,30.01,SSE,159,10.5,10.5,61,0.00,,-RA,0.04,VWS V14.01,2013-01-11 15:35:00,
2013-01-11 10:40:00,39.4,27.1,30.01,South,170,8.1,12.3,61,0.00,,-RA,0.04,VWS V14.01,2013-01-11 15:40:00,
2013-01-11 10:45:00,39.7,27.0,30.01,South,184,8.1,10.1,60,0.00,,-RA,0.04,VWS V14.01,2013-01-11 15:45:00,
2013-01-11 10:50:00,39.7,27.0,30.01,SSE,164,8.1,10.5,60,0.00,,-RA,0.04,VWS V14.01,2013-01-11 15:50:00,
2013-01-11 10:55:00,39.7,27.0,30.01,SSE,152,8.3,10.5,60,0.00,,-RA,0.04,VWS V14.01,2013-01-11 15:55:00,
2013-01-11 11:00:00,39.6,26.8,30.01,South,178,7.2,10.1,60,0.00,,-RA,0.04,VWS V14.01,2013-01-11 16:00:00,
2013-01-11 11:05:00,39.6,27.2,29.98,SSE,152,10.1,10.1,61,0.00,,OVC200,0.04,VWS V14.01,2013-01-11 16:05:00,
2013-01-11 11:10:00,39.7,27.4,29.98,SSE,167,11.0,11.0,61,0.00,,OVC200,0.04,VWS V14.01,2013-01-11 16:10:00,
2013-01-11 11:15:00,39.7,27.4,29.98,South,177,10.1,11.0,61,0.00,,OVC200,0.04,VWS V14.01,2013-01-11 16:15:00,
2013-01-11 11:20:00,39.7,27.8,29.95,SSW,207,8.7,10.1,62,0.00,,OVC200,0.04,VWS V14.01,2013-01-11 16:20:00,
2013-01-11 11:25:00,39.6,28.0,29.95,SSE,157,5.4,5.8,63,0.00,,OVC200,0.04,VWS V14.01,2013-01-11 16:25:00,
2013-01-11 11:30:00,39.6,28.4,29.95,SE,138,5.4,8.3,64,0.00,,OVC200,0.04,VWS V14.01,2013-01-11 16:30:00,
2013-01-11 11:35:00,39.6,28.4,29.95,SSE,162,8.7,8.7,64,0.00,,OVC200,0.04,VWS V14.01,2013-01-11 16:35:00,
2013-01-11 11:40:00,39.7,29.0,29.95,South,177,8.1,8.1,65,0.00,,OVC200,0.04,VWS V14.01,2013-01-11 16:40:00,
2013-01-11 11:45:00,39.9,29.1,29.95,SSE,156,10.5,12.8,65,0.00,,OVC200,0.04,VWS V14.01,2013-01-11 16:45:00,
2013-01-11 11:50:00,40.3,29.5,29.95,SSE,166,8.3,12.8,65,0.00,,OVC200,0.04,VWS V14.01,2013-01-11 16:50:00,
2013-01-11 11:55:00,40.6,29.8,29.95,SSE,162,8.3,9.2,65,0.00,,OVC200,0.04,VWS V14.01,2013-01-11 16:55:00,
2013-01-11 12:00:00,40.6,30.2,29.95,South,188,8.1,8.7,66,0.00,,-RA,0.04,VWS V14.01,2013-01-11 17:00:00,
2013-01-11 12:06:00,40.5,30.0,29.92,South,184,6.3,8.7,66,0.00,,-RA,0.04,VWS V14.01,2013-01-11 17:06:00,
2013-01-11 12:11:00,40.6,30.5,29.92,SE,143,7.6,8.1,67,0.00,,-RA,0.04,VWS V14.01,2013-01-11 17:11:00,
2013-01-11 12:16:00,40.8,31.1,29.92,South,172,8.1,8.1,68,0.00,,-RA,0.04,VWS V14.01,2013-01-11 17:16:00,
2013-01-11 12:21:00,41.2,31.4,29.92,South,174,6.3,8.1,68,0.00,,-RA,0.04,VWS V14.01,2013-01-11 17:21:00,
2013-01-11 12:26:00,41.2,31.4,29.92,SE,132,7.6,11.4,68,0.00,,-RA,0.04,VWS V14.01,2013-01-11 17:26:00,
2013-01-11 12:31:00,41.2,31.4,29.92,South,176,12.3,12.3,68,0.00,,-RA,0.04,VWS V14.01,2013-01-11 17:31:00,
2013-01-11 12:36:00,41.2,31.4,29.92,SSE,156,10.1,10.1,68,0.00,,-RA,0.04,VWS V14.01,2013-01-11 17:36:00,
2013-01-11 12:41:00,41.2,31.4,29.92,SSE,159,10.5,10.5,68,0.00,,-RA,0.04,VWS V14.01,2013-01-11 17:41:00,
2013-01-11 12:46:00,41.5,31.8,29.92,SSE,163,8.1,8.1,68,0.00,,-RA,0.04,VWS V14.01,2013-01-11 17:46:00,
2013-01-11 12:51:00,41.7,32.0,29.89,South,178,7.6,8.3,68,0.00,,-RA,0.04,VWS V14.01,2013-01-11 17:51:00,
2013-01-11 12:56:00,41.7,32.0,29.89,South,170,8.1,8.1,68,0.00,,-RA,0.04,VWS V14.01,2013-01-11 17:56:00,
2013-01-11 13:01:00,41.7,31.6,29.89,SSE,157,8.3,11.0,67,0.00,,OVC200,0.04,VWS V14.01,2013-01-11 18:01:00,
2013-01-11 13:06:00,41.5,31.4,29.89,SSE,165,7.6,8.7,67,0.00,,OVC200,0.04,VWS V14.01,2013-01-11 18:06:00,
2013-01-11 13:11:00,41.5,31.8,29.89,SE,140,7.6,7.6,68,0.00,,OVC200,0.04,VWS V14.01,2013-01-11 18:11:00,
2013-01-11 13:16:00,41.5,31.8,29.89,SSE,159,7.2,7.2,68,0.00,,OVC200,0.04,VWS V14.01,2013-01-11 18:16:00,
2013-01-11 13:21:00,41.5,31.8,29.89,SE,137,5.8,8.3,68,0.00,,OVC200,0.04,VWS V14.01,2013-01-11 18:21:00,
2013-01-11 13:26:00,41.5,32.1,29.89,SSE,154,8.3,8.3,69,0.00,,OVC200,0.04,VWS V14.01,2013-01-11 18:26:00,
2013-01-11 13:31:00,41.5,32.5,29.89,SSW,203,4.0,6.3,70,0.00,,-RA,0.04,VWS V14.01,2013-01-11 18:31:00,
2013-01-11 13:36:00,41.7,33.0,29.86,South,177,3.6,8.7,71,0.00,,-RA,0.04,VWS V14.01,2013-01-11 18:36:00,
2013-01-11 13:41:00,41.7,33.0,29.86,SSE,151,5.8,6.3,71,0.00,,-RA,0.04,VWS V14.01,2013-01-11 18:41:00,
2013-01-11 13:46:00,41.9,33.5,29.86,SSE,162,7.6,8.1,72,0.00,,-RA,0.04,VWS V14.01,2013-01-11 18:46:00,
2013-01-11 13:51:00,41.9,33.9,29.86,South,169,7.6,13.2,73,0.00,,-RA,0.04,VWS V14.01,2013-01-11 18:51:00,
2013-01-11 13:56:00,42.3,34.9,29.86,SSE,165,9.6,11.9,75,0.00,,-RA,0.04,VWS V14.01,2013-01-11 18:56:00,
2013-01-11 14:01:00,42.3,35.6,29.86,SSW,192,8.7,15.0,77,0.00,,-RA,0.04,VWS V14.01,2013-01-11 19:01:00,
2013-01-11 14:06:00,42.1,35.7,29.86,South,177,11.0,11.4,78,0.00,,-RA,0.04,VWS V14.01,2013-01-11 19:06:00,
2013-01-11 14:11:00,42.1,36.0,29.86,SSE,158,4.0,7.6,79,0.00,,-RA,0.04,VWS V14.01,2013-01-11 19:11:00,
2013-01-11 14:16:00,42.1,36.0,29.86,SSE,168,8.7,8.7,79,0.00,,-RA,0.04,VWS V14.01,2013-01-11 19:16:00,
2013-01-11 14:21:00,41.9,35.5,29.86,SSE,156,6.3,10.5,78,0.00,,-RA,0.04,VWS V14.01,2013-01-11 19:21:00,
2013-01-11 14:26:00,41.9,35.5,29.86,South,188,14.1,14.1,78,0.00,,-RA,0.04,VWS V14.01,2013-01-11 19:26:00,
2013-01-11 14:31:00,41.9,35.2,29.86,South,169,7.6,12.8,77,0.00,,-RA,0.04,VWS V14.01,2013-01-11 19:31:00,
2013-01-11 14:36:00,41.7,34.7,29.86,SSE,164,10.5,11.0,76,0.00,,-RA,0.04,VWS V14.01,2013-01-11 19:36:00,
2013-01-11 14:41:00,41.7,34.7,29.86,South,180,11.4,12.3,76,0.00,,-RA,0.04,VWS V14.01,2013-01-11 19:41:00,
2013-01-11 14:46:00,41.5,34.5,29.86,SSW,204,9.2,13.2,76,0.00,,-RA,0.04,VWS V14.01,2013-01-11 19:46:00,
2013-01-11 14:52:00,41.2,34.5,29.86,SSE,163,15.0,15.0,77,0.00,,-RA,0.04,VWS V14.01,2013-01-11 19:52:00,
2013-01-11 14:57:00,41.2,34.5,29.86,SSW,193,13.2,13.2,77,0.00,,-RA,0.04,VWS V14.01,2013-01-11 19:57:00,
2013-01-11 15:02:00,41.0,34.7,29.86,South,172,12.8,12.8,78,0.00,,-RA,0.04,VWS V14.01,2013-01-11 20:02:00,
2013-01-11 15:07:00,41.0,34.7,29.86,South,183,11.0,12.8,78,0.00,,-RA,0.04,VWS V14.01,2013-01-11 20:07:00,
2013-01-11 15:12:00,41.0,35.3,29.86,SSW,192,10.1,10.1,80,0.00,,-RA,0.04,VWS V14.01,2013-01-11 20:12:00,
2013-01-11 15:17:00,41.0,35.6,29.86,South,182,10.1,10.5,81,0.04,,-RA,0.08,VWS V14.01,2013-01-11 20:17:00,
2013-01-11 15:22:00,41.0,35.9,29.86,South,173,15.0,15.0,82,0.04,,-RA,0.08,VWS V14.01,2013-01-11 20:22:00,
2013-01-11 15:27:00,40.6,35.9,29.86,SSE,156,10.5,11.0,83,0.04,,-RA,0.08,VWS V14.01,2013-01-11 20:27:00,
2013-01-11 15:32:00,40.6,35.6,29.86,SSW,192,8.3,8.3,82,0.04,,-RA,0.08,VWS V14.01,2013-01-11 20:32:00,
2013-01-11 15:37:00,40.5,35.4,29.83,South,185,8.1,10.1,82,0.04,,-RA,0.08,VWS V14.01,2013-01-11 20:37:00,
2013-01-11 15:42:00,40.3,35.2,29.83,South,181,8.7,8.7,82,0.04,,-RA,0.08,VWS V14.01,2013-01-11 20:42:00,
2013-01-11 15:47:00,40.3,35.2,29.83,SSE,159,15.0,15.0,82,0.04,,-RA,0.08,VWS V14.01,2013-01-11 20:47:00,
2013-01-11 15:52:00,40.3,35.2,29.83,South,181,10.5,10.5,82,0.04,,-RA,0.08,VWS V14.01,2013-01-11 20:52:00,
2013-01-11 15:57:00,40.3,35.2,29.83,SSW,199,14.1,14.1,82,0.04,,-RA,0.08,VWS V14.01,2013-01-11 20:57:00,
2013-01-11 16:02:00,40.3,35.2,29.83,South,174,8.7,12.8,82,0.04,,-RA,0.08,VWS V14.01,2013-01-11 21:02:00,
2013-01-11 16:07:00,40.3,35.2,29.86,SSW,203,8.1,10.1,82,0.04,,-RA,0.08,VWS V14.01,2013-01-11 21:07:00,
2013-01-11 16:12:00,40.1,35.1,29.86,South,172,11.0,11.0,82,0.04,,-RA,0.08,VWS V14.01,2013-01-11 21:12:00,
2013-01-11 16:17:00,40.3,35.5,29.86,South,173,8.3,8.3,83,0.00,,-RA,0.08,VWS V14.01,2013-01-11 21:17:00,
2013-01-11 16:22:00,40.3,35.5,29.86,SSE,163,9.2,10.5,83,0.00,,-RA,0.08,VWS V14.01,2013-01-11 21:22:00,
2013-01-11 16:27:00,40.5,35.7,29.86,South,178,6.3,7.6,83,0.00,,-RA,0.08,VWS V14.01,2013-01-11 21:27:00,
2013-01-11 16:32:00,40.5,35.7,29.86,SSW,198,6.7,8.7,83,0.00,,OVC200,0.08,VWS V14.01,2013-01-11 21:32:00,
2013-01-11 16:37:00,40.3,35.5,29.86,South,180,6.3,8.7,83,0.00,,OVC200,0.08,VWS V14.01,2013-01-11 21:37:00,
2013-01-11 16:42:00,40.3,35.5,29.86,South,191,5.4,5.4,83,0.00,,OVC200,0.08,VWS V14.01,2013-01-11 21:42:00,
2013-01-11 16:47:00,40.1,35.4,29.86,South,188,4.0,5.8,83,0.00,,OVC200,0.08,VWS V14.01,2013-01-11 21:47:00,
2013-01-11 16:52:00,40.1,35.4,29.86,SSW,200,4.0,4.0,83,0.00,,OVC200,0.08,VWS V14.01,2013-01-11 21:52:00,
2013-01-11 16:57:00,40.1,35.7,29.86,SSW,211,4.9,5.4,84,0.00,,OVC200,0.08,VWS V14.01,2013-01-11 21:57:00,
2013-01-11 17:03:00,40.8,37.0,29.86,WSW,238,11.0,11.0,86,0.00,,OVC100,0.08,VWS V14.01,2013-01-11 22:03:00,
2013-01-11 17:08:00,41.4,37.5,29.86,SSW,203,12.3,13.2,86,0.00,,OVC100,0.08,VWS V14.01,2013-01-11 22:08:00,
2013-01-11 17:13:00,41.5,37.7,29.86,SSW,211,10.1,12.8,86,0.00,,OVC100,0.08,VWS V14.01,2013-01-11 22:13:00,
2013-01-11 17:18:00,41.5,37.7,29.86,SSW,205,8.3,8.3,86,0.00,,OVC100,0.08,VWS V14.01,2013-01-11 22:18:00,
2013-01-11 17:23:00,41.7,37.8,29.86,SW,218,7.6,7.6,86,0.00,,OVC100,0.08,VWS V14.01,2013-01-11 22:23:00,
2013-01-11 17:28:00,41.7,37.8,29.86,SW,228,8.3,12.3,86,0.00,,OVC100,0.08,VWS V14.01,2013-01-11 22:28:00,
2013-01-11 17:33:00,41.5,37.4,29.86,SSW,196,5.8,8.7,85,0.00,,OVC020,0.08,VWS V14.01,2013-01-11 22:33:00,
2013-01-11 17:38:00,41.4,37.2,29.86,South,183,5.4,8.1,85,0.00,,OVC020,0.08,VWS V14.01,2013-01-11 22:38:00,
2013-01-11 17:43:00,41.5,37.4,29.86,SSW,212,11.0,11.9,85,0.00,,OVC020,0.08,VWS V14.01,2013-01-11 22:43:00,
2013-01-11 17:48:00,41.7,37.5,29.86,WSW,243,10.1,10.1,85,0.00,,OVC020,0.08,VWS V14.01,2013-01-11 22:48:00,
2013-01-11 17:53:00,42.1,38.2,29.86,SSW,207,7.6,10.5,86,0.00,,OVC020,0.08,VWS V14.01,2013-01-11 22:53:00,
2013-01-11 17:58:00,42.1,38.2,29.86,SE,140,13.6,13.6,86,0.00,,OVC020,0.08,VWS V14.01,2013-01-11 22:58:00,
2013-01-11 18:03:00,42.1,38.2,29.86,West,275,11.9,14.5,86,0.00,,OVC020,0.08,VWS V14.01,2013-01-11 23:03:00,
2013-01-11 18:08:00,42.1,37.9,29.86,SW,222,8.3,10.5,85,0.00,,OVC020,0.08,VWS V14.01,2013-01-11 23:08:00,
2013-01-11 18:13:00,42.1,37.9,29.86,WSW,251,7.2,8.7,85,0.00,,OVC020,0.08,VWS V14.01,2013-01-11 23:13:00,
2013-01-11 18:18:00,42.3,38.1,29.86,SSW,195,8.1,10.1,85,0.00,,OVC020,0.08,VWS V14.01,2013-01-11 23:18:00,
2013-01-11 18:23:00,42.3,38.4,29.86,South,188,7.6,13.2,86,0.00,,OVC020,0.08,VWS V14.01,2013-01-11 23:23:00,
2013-01-11 18:28:00,42.3,38.1,29.86,SW,227,8.3,8.7,85,0.00,,OVC020,0.08,VWS V14.01,2013-01-11 23:28:00,
2013-01-11 18:33:00,42.4,38.6,29.86,SSW,209,9.6,11.9,86,0.00,,OVC018,0.08,VWS V14.01,2013-01-11 23:33:00,
2013-01-11 18:38:00,42.4,38.6,29.86,SW,216,10.5,11.0,86,0.00,,OVC018,0.08,VWS V14.01,2013-01-11 23:38:00,
2013-01-11 18:43:00,42.4,38.6,29.86,SSW,211,6.3,7.6,86,0.00,,OVC018,0.08,VWS V14.01,2013-01-11 23:43:00,
2013-01-11 18:48:00,42.6,38.7,29.86,SW,229,5.4,11.0,86,0.00,,OVC018,0.08,VWS V14.01,2013-01-11 23:48:00,
2013-01-11 18:53:00,42.6,38.7,29.89,South,175,8.3,10.1,86,0.00,,OVC018,0.08,VWS V14.01,2013-01-11 23:53:00,
2013-01-11 18:58:00,42.6,39.0,29.89,SSW,200,12.8,15.0,87,0.00,,OVC018,0.08,VWS V14.01,2013-01-11 23:58:00,
2013-01-11 19:03:00,42.6,39.0,29.89,SW,214,7.6,12.8,87,0.00,,OVC018,0.08,VWS V14.01,2013-01-12 00:03:00,
2013-01-11 19:08:00,42.4,38.6,29.86,SW,231,14.1,14.1,86,0.00,,OVC018,0.08,VWS V14.01,2013-01-12 00:08:00,
2013-01-11 19:14:00,42.4,38.8,29.86,SW,217,6.3,10.5,87,0.00,,OVC018,0.08,VWS V14.01,2013-01-12 00:14:00,
2013-01-11 19:19:00,42.4,38.8,29.86,SW,229,14.1,16.8,87,0.00,,OVC018,0.08,VWS V14.01,2013-01-12 00:19:00,
2013-01-11 19:24:00,42.3,38.7,29.89,SW,222,10.1,10.1,87,0.00,,OVC018,0.08,VWS V14.01,2013-01-12 00:24:00,
2013-01-11 19:29:00,42.3,38.7,29.89,SW,227,8.7,13.2,87,0.00,,OVC018,0.08,VWS V14.01,2013-01-12 00:29:00,
2013-01-11 19:34:00,42.3,38.7,29.89,SW,233,12.3,12.3,87,0.00,,OVC018,0.08,VWS V14.01,2013-01-12 00:34:00,
2013-01-11 19:39:00,42.4,39.1,29.89,SSW,206,8.7,17.4,88,0.00,,OVC018,0.08,VWS V14.01,2013-01-12 00:39:00,
2013-01-11 19:44:00,42.4,39.1,29.89,SSW,207,8.1,15.4,88,0.00,,OVC018,0.08,VWS V14.01,2013-01-12 00:44:00,
2013-01-11 19:49:00,42.4,39.4,29.89,WSW,239,14.1,16.3,89,0.00,,OVC018,0.08,VWS V14.01,2013-01-12 00:49:00,
2013-01-11 19:54:00,42.4,39.7,29.89,SW,227,9.2,12.8,90,0.00,,OVC018,0.08,VWS V14.01,2013-01-12 00:54:00,
2013-01-11 19:59:00,42.4,40.0,29.89,SW,225,11.0,11.0,91,0.00,,OVC018,0.08,VWS V14.01,2013-01-12 00:59:00,
2013-01-11 20:04:00,42.3,40.1,29.89,SSW,202,8.7,10.1,92,0.00,,OVC018,0.08,VWS V14.01,2013-01-12 01:04:00,
2013-01-11 20:09:00,42.3,40.1,29.89,SW,214,8.3,13.2,92,0.00,,OVC018,0.08,VWS V14.01,2013-01-12 01:09:00,
2013-01-11 20:14:00,42.3,40.4,29.89,WSW,244,6.3,7.6,93,0.00,,OVC018,0.08,VWS V14.01,2013-01-12 01:14:00,
2013-01-11 20:19:00,42.3,40.4,29.89,SW,235,14.1,14.1,93,0.00,,OVC018,0.08,VWS V14.01,2013-01-12 01:19:00,
2013-01-11 20:24:00,42.3,40.4,29.89,SW,219,8.7,13.6,93,0.00,,OVC018,0.08,VWS V14.01,2013-01-12 01:24:00,
2013-01-11 20:29:00,42.3,40.4,29.89,SSW,204,8.3,8.3,93,0.00,,OVC018,0.08,VWS V14.01,2013-01-12 01:29:00,
2013-01-11 20:34:00,42.3,40.1,29.89,SW,214,8.1,10.1,92,0.00,,OVC018,0.08,VWS V14.01,2013-01-12 01:34:00,
2013-01-11 20:39:00,42.3,40.1,29.89,SSW,211,10.1,11.0,92,0.00,,OVC018,0.08,VWS V14.01,2013-01-12 01:39:00,
2013-01-11 20:44:00,42.3,40.1,29.89,SW,225,8.3,8.7,92,0.00,,OVC018,0.08,VWS V14.01,2013-01-12 01:44:00,
2013-01-11 20:49:00,42.3,40.1,29.89,SW,226,8.7,9.6,92,0.00,,OVC018,0.08,VWS V14.01,2013-01-12 01:49:00,
2013-01-11 20:54:00,42.1,39.7,29.89,SW,233,7.6,7.6,91,0.00,,OVC018,0.08,VWS V14.01,2013-01-12 01:54:00,
2013-01-11 20:59:00,42.1,39.7,29.89,SW,219,8.3,8.3,91,0.00,,OVC018,0.08,VWS V14.01,2013-01-12 01:59:00,
2013-01-11 21:04:00,42.3,39.8,29.89,SSW,209,7.6,10.1,91,0.00,,OVC034,0.08,VWS V14.01,2013-01-12 02:04:00,
2013-01-11 21:09:00,42.4,40.3,29.89,SW,219,7.2,11.0,92,0.00,,OVC034,0.08,VWS V14.01,2013-01-12 02:09:00,
2013-01-11 21:14:00,42.6,40.5,29.89,SW,234,11.0,11.0,92,0.00,,OVC034,0.08,VWS V14.01,2013-01-12 02:14:00,
2013-01-11 21:19:00,42.6,40.5,29.89,WSW,241,8.3,12.8,92,0.00,,OVC034,0.08,VWS V14.01,2013-01-12 02:19:00,
2013-01-11 21:24:00,42.8,40.4,29.89,WSW,243,12.3,12.3,91,0.00,,OVC034,0.08,VWS V14.01,2013-01-12 02:24:00,
2013-01-11 21:30:00,42.8,40.4,29.89,SW,229,10.5,10.5,91,0.00,,OVC034,0.08,VWS V14.01,2013-01-12 02:30:00,
2013-01-11 21:35:00,42.8,40.4,29.89,SW,221,11.0,11.0,91,0.00,,OVC034,0.08,VWS V14.01,2013-01-12 02:35:00,
2013-01-11 21:40:00,43.0,40.5,29.89,SW,219,8.3,8.3,91,0.00,,OVC034,0.08,VWS V14.01,2013-01-12 02:40:00,
2013-01-11 21:45:00,43.0,40.5,29.89,West,268,8.1,11.0,91,0.00,,OVC034,0.08,VWS V14.01,2013-01-12 02:45:00,
2013-01-11 21:50:00,43.0,40.5,29.89,SW,217,11.0,11.0,91,0.00,,OVC034,0.08,VWS V14.01,2013-01-12 02:50:00,
2013-01-11 21:55:00,43.2,40.7,29.89,SW,214,10.5,11.0,91,0.00,,OVC034,0.08,VWS V14.01,2013-01-12 02:55:00,
2013-01-11 22:00:00,43.0,40.5,29.89,SSW,210,9.6,10.1,91,0.00,,OVC034,0.08,VWS V14.01,2013-01-12 03:00:00,
2013-01-11 22:05:00,42.8,40.6,29.89,South,169,8.1,10.1,92,0.00,,OVC034,0.08,VWS V14.01,2013-01-12 03:05:00,
2013-01-11 22:10:00,42.6,41.0,29.89,SW,223,6.3,6.3,94,0.00,,OVC034,0.08,VWS V14.01,2013-01-12 03:10:00,
2013-01-11 22:15:00,42.4,40.8,29.89,SW,226,10.5,10.5,94,0.00,,OVC034,0.08,VWS V14.01,2013-01-12 03:15:00,
2013-01-11 22:20:00,42.8,41.5,29.89,SW,218,13.2,13.2,95,0.00,,OVC034,0.08,VWS V14.01,2013-01-12 03:20:00,
2013-01-11 22:25:00,43.0,41.9,29.89,SW,214,11.0,11.0,96,0.00,,OVC034,0.08,VWS V14.01,2013-01-12 03:25:00,
2013-01-11 22:30:00,42.8,41.7,29.89,WSW,244,8.3,9.6,96,0.00,,OVC034,0.08,VWS V14.01,2013-01-12 03:30:00,
2013-01-11 22:35:00,43.0,42.2,29.89,SW,219,11.0,11.9,97,0.00,,OVC034,0.08,VWS V14.01,2013-01-12 03:35:00,
2013-01-11 22:40:00,43.0,42.2,29.89,SW,234,8.1,9.2,97,0.00,,OVC034,0.08,VWS V14.01,2013-01-12 03:40:00,
2013-01-11 22:45:00,43.2,42.4,29.89,SW,217,7.6,8.7,97,0.00,,OVC034,0.08,VWS V14.01,2013-01-12 03:45:00,
2013-01-11 22:50:00,43.0,42.2,29.92,SSW,209,8.1,8.7,97,0.00,,OVC034,0.08,VWS V14.01,2013-01-12 03:50:00,
2013-01-11 22:55:00,43.2,42.6,29.92,SW,216,10.5,10.5,98,0.00,,OVC034,0.08,VWS V14.01,2013-01-12 03:55:00,
2013-01-11 23:00:00,43.3,42.8,29.92,SSW,196,4.0,10.1,98,0.00,,OVC065,0.08,VWS V14.01,2013-01-12 04:00:00,
2013-01-11 23:05:00,43.3,42.8,29.92,SW,217,9.6,10.1,98,0.00,,OVC065,0.08,VWS V14.01,2013-01-12 04:05:00,
2013-01-11 23:10:00,43.3,42.8,29.92,SW,217,8.3,12.3,98,0.00,,OVC065,0.08,VWS V14.01,2013-01-12 04:10:00,
2013-01-11 23:16:00,43.3,42.8,29.92,WSW,244,8.7,12.8,98,0.00,,OVC065,0.08,VWS V14.01,2013-01-12 04:16:00,
2013-01-11 23:21:00,43.3,42.8,29.89,SW,235,10.5,10.5,98,0.00,,OVC065,0.08,VWS V14.01,2013-01-12 04:21:00,
2013-01-11 23:26:00,43.3,42.8,29.89,SW,228,8.3,8.7,98,0.00,,OVC065,0.08,VWS V14.01,2013-01-12 04:26:00,
2013-01-11 23:31:00,43.5,43.0,29.89,SW,220,4.0,12.3,98,0.00,,OVC065,0.08,VWS V14.01,2013-01-12 04:31:00,
2013-01-11 23:36:00,43.5,43.0,29.92,SW,222,10.1,11.0,98,0.00,,OVC065,0.08,VWS V14.01,2013-01-12 04:36:00,
2013-01-11 23:41:00,43.7,43.2,29.92,SSW,206,8.3,9.6,98,0.00,,OVC065,0.08,VWS V14.01,2013-01-12 04:41:00,
2013-01-11 23:46:00,43.7,43.2,29.92,South,177,8.1,8.7,98,0.00,,OVC065,0.08,VWS V14.01,2013-01-12 04:46:00,
2013-01-11 23:51:00,43.5,43.0,29.92,SW,216,8.7,8.7,98,0.00,,OVC065,0.08,VWS V14.01,2013-01-12 04:51:00,
2013-01-11 23:56:00,43.5,43.0,29.92,SSW,207,10.1,10.1,98,0.00,,OVC065,0.08,VWS V14.01,2013-01-12 04:56:00,